Time;durP1;ratioP1;P1;durP2;ratioP2;P2;SDS_P1;SDS_P2;PMS_P1;PMS_P2;Temp;Humidity;BMP_temperature;BMP_pressure;BME280_temperature;BME280_humidity;BME280_pressure;Samples;Min_cycle;Max_cycle;Signal;HPM_P1;HPM_P2
2022/12/21 00:02:16;;;;;;;9.70;7.03;;;;;;;9.09;95.48;100241.25;5046899;28;20237;-79
2022/12/21 00:04:43;;;;;;;10.10;7.83;;;;;;;9.05;95.88;100244.09;5047285;28;20210;-80
2022/12/21 00:07:11;;;;;;;8.20;7.07;;;;;;;9.04;96.06;100230.91;5044658;28;20288;-79
2022/12/21 00:09:39;;;;;;;11.93;7.67;;;;;;;9.03;95.92;100238.00;5048480;28;20232;-80
2022/12/21 00:12:06;;;;;;;8.77;7.57;;;;;;;9.01;95.86;100239.06;5047391;28;20228;-80
2022/12/21 00:14:32;;;;;;;9.60;7.07;;;;;;;9.03;95.71;100245.13;5043146;28;20217;-79
2022/12/21 00:16:59;;;;;;;7.60;6.80;;;;;;;9.01;96.50;100252.34;5048508;28;20201;-81
2022/12/21 00:19:25;;;;;;;7.93;7.13;;;;;;;8.98;96.55;100247.22;5047484;28;20213;-81
2022/12/21 00:21:52;;;;;;;6.60;5.90;;;;;;;9.03;97.41;100245.97;5051336;28;20720;-79
2022/12/21 00:24:18;;;;;;;7.93;6.87;;;;;;;9.03;97.34;100242.47;5051937;28;20221;-80
2022/12/21 00:26:46;;;;;;;8.33;6.93;;;;;;;9.01;97.84;100239.06;5048318;28;20218;-80
2022/12/21 00:29:12;;;;;;;7.17;6.43;;;;;;;8.99;97.93;100236.50;5049009;28;20214;-80
2022/12/21 00:31:39;;;;;;;7.70;6.77;;;;;;;8.97;98.15;100241.03;5047723;28;20237;-79
2022/12/21 00:34:06;;;;;;;7.97;7.10;;;;;;;8.97;98.43;100237.53;5058411;28;20206;-80
2022/12/21 00:36:33;;;;;;;7.83;7.10;;;;;;;8.97;98.83;100230.41;5050158;28;20213;-82
2022/12/21 00:39:00;;;;;;;9.80;7.20;;;;;;;8.96;98.96;100231.38;5051604;28;20214;-80
2022/12/21 00:41:28;;;;;;;8.13;7.37;;;;;;;8.97;99.17;100227.75;5049775;28;20225;-82
2022/12/21 00:43:56;;;;;;;7.50;6.80;;;;;;;8.97;99.34;100227.75;5049886;28;20240;-82
2022/12/21 00:46:25;;;;;;;8.50;7.47;;;;;;;8.95;99.76;100235.00;5047920;28;20217;-78
2022/12/21 00:48:52;;;;;;;8.10;7.27;;;;;;;8.95;99.95;100239.47;5047434;28;20217;-81
2022/12/21 00:51:21;;;;;;;9.23;7.50;;;;;;;8.92;99.42;100248.47;5047914;28;20213;-82
2022/12/21 00:53:48;;;;;;;9.57;7.23;;;;;;;8.93;99.89;100238.69;5053152;28;20207;-82
2022/12/21 00:56:15;;;;;;;8.00;7.20;;;;;;;8.91;100.00;100235.28;5046978;28;20580;-81
2022/12/21 00:58:43;;;;;;;8.00;7.20;;;;;;;8.91;100.00;100237.94;5052353;28;20209;-81
2022/12/21 01:01:13;;;;;;;8.17;7.37;;;;;;;8.89;100.00;100243.34;5044114;28;20197;-82
2022/12/21 01:03:40;;;;;;;9.23;7.17;;;;;;;8.87;100.00;100244.38;5050033;28;20224;-79
2022/12/21 01:06:12;;;;;;;9.67;7.67;;;;;;;8.85;100.00;100240.97;5050698;28;20201;-81
2022/12/21 01:08:38;;;;;;;8.83;7.27;;;;;;;8.83;100.00;100249.03;5045976;28;20212;-80
2022/12/21 01:11:05;;;;;;;8.23;6.93;;;;;;;8.85;100.00;100243.63;5045556;28;20212;-82
2022/12/21 01:13:32;;;;;;;7.77;6.97;;;;;;;8.84;100.00;100245.44;5051817;28;20572;-82
2022/12/21 01:15:59;;;;;;;7.77;6.97;;;;;;;8.85;100.00;100243.63;5049151;28;20214;-81
2022/12/21 01:18:27;;;;;;;8.30;7.50;;;;;;;8.83;100.00;100253.50;5045426;28;20288;-82
2022/12/21 01:20:55;;;;;;;9.43;7.50;;;;;;;8.80;100.00;100254.53;5057153;28;20209;-80
2022/12/21 01:23:23;;;;;;;8.90;8.07;;;;;;;8.80;100.00;100251.88;5050880;28;20597;-80
2022/12/21 01:25:50;;;;;;;8.37;7.50;;;;;;;8.78;100.00;100253.75;5050236;28;20197;-80
2022/12/21 01:28:18;;;;;;;8.40;7.37;;;;;;;8.78;100.00;100252.94;5054041;28;20201;-78
2022/12/21 01:30:45;;;;;;;8.07;7.37;;;;;;;8.77;100.00;100252.09;5055898;28;20209;-81
2022/12/21 01:33:14;;;;;;;9.10;8.17;;;;;;;8.76;100.00;100254.84;5054975;28;20334;-81
2022/12/21 01:35:42;;;;;;;9.23;8.23;;;;;;;8.75;100.00;100259.28;5061176;28;20206;-82
2022/12/21 01:38:10;;;;;;;10.03;8.00;;;;;;;8.76;100.00;100262.81;5055327;28;20204;-80
2022/12/21 01:40:38;;;;;;;10.37;8.70;;;;;;;8.74;100.00;100259.38;5056586;28;20202;-80
2022/12/21 01:43:16;;;;;;;9.80;7.90;;;;;;;8.76;100.00;100268.13;5054545;28;20236;-80
2022/12/21 01:45:42;;;;;;;10.10;9.10;;;;;;;8.73;100.00;100273.59;5051533;28;20197;-82
2022/12/21 01:48:15;;;;;;;10.10;9.10;;;;;;;8.71;100.00;100273.69;5054611;28;20209;-81
2022/12/21 01:50:46;;;;;;;10.17;9.17;;;;;;;8.70;100.00;100272.00;5056786;28;20228;-82
2022/12/21 01:53:17;;;;;;;10.47;9.33;;;;;;;8.69;100.00;100273.78;5050654;28;20221;-81
2022/12/21 01:55:49;;;;;;;10.73;9.63;;;;;;;8.70;100.00;100267.53;5056920;28;20216;-82
2022/12/21 01:58:17;;;;;;;11.93;9.70;;;;;;;8.71;100.00;100257.78;5047738;28;20209;-82
2022/12/21 02:00:44;;;;;;;12.27;10.47;;;;;;;8.69;100.00;100267.63;5052682;28;20267;-81
2022/12/21 02:03:14;;;;;;;11.60;10.40;;;;;;;8.67;100.00;100272.16;5058454;28;20229;-82
2022/12/21 02:05:46;;;;;;;11.60;10.30;;;;;;;8.67;100.00;100273.03;5059092;28;20212;-82
2022/12/21 02:08:13;;;;;;;11.20;10.07;;;;;;;8.68;100.00;100276.53;5058673;28;20197;-81
2022/12/21 02:10:39;;;;;;;12.13;10.83;;;;;;;8.63;100.00;100279.47;5057783;28;20664;-81
2022/12/21 02:13:13;;;;;;;14.00;11.27;;;;;;;8.66;100.00;100270.47;5058789;28;20225;-81
2022/12/21 02:15:53;;;;;;;14.50;12.83;;;;;;;8.65;100.00;100268.75;5062545;28;20231;-82
2022/12/21 02:18:31;;;;;;;13.63;12.10;;;;;;;8.65;100.00;100274.06;5056219;28;20233;-82
2022/12/21 02:21:25;;;;;;;12.47;11.17;;;;;;;8.64;100.00;100272.34;5054377;28;21929;-81
2022/12/21 02:24:32;;;;;;;12.83;11.53;;;;;;;8.65;100.00;100274.06;5057969;28;20308;-81
2022/12/21 02:27:14;;;;;;;12.90;11.60;;;;;;;8.64;100.00;100264.38;5050271;28;20218;-82
2022/12/21 02:30:10;;;;;;;14.40;12.37;;;;;;;8.62;100.00;100260.97;5053649;28;21578;-82
2022/12/21 02:33:02;;;;;;;13.23;11.83;;;;;;;8.63;100.00;100268.84;5051343;28;20281;-81
2022/12/21 02:35:42;;;;;;;13.47;12.00;;;;;;;8.63;100.00;100273.31;5055634;28;20209;-81
2022/12/21 02:38:24;;;;;;;14.30;12.23;;;;;;;8.62;100.00;100268.94;5053734;28;20201;-82
2022/12/21 02:41:04;;;;;;;14.43;12.90;;;;;;;8.62;100.00;100268.94;5045614;28;20206;-81
2022/12/21 02:46:30;;;;;;;14.80;11.97;;;;;;;8.63;100.00;100268.00;5053136;28;20212;-81
2022/12/21 02:49:03;;;;;;;13.53;12.10;;;;;;;8.63;100.00;100260.03;5051918;28;20216;-80
2022/12/21 02:51:35;;;;;;;13.57;12.17;;;;;;;8.63;100.00;100265.34;5049678;28;20225;-80
2022/12/21 02:54:02;;;;;;;14.57;13.00;;;;;;;8.62;100.00;100264.47;5045880;28;20536;-80
2022/12/21 02:56:29;;;;;;;13.63;12.23;;;;;;;8.60;100.00;100263.72;5043346;28;20202;-80
2022/12/21 02:58:56;;;;;;;15.47;12.87;;;;;;;8.59;100.00;100275.31;5048610;28;20589;-79
2022/12/21 03:01:38;;;;;;;13.83;12.33;;;;;;;8.59;100.00;100274.47;5053104;28;20264;-80
2022/12/21 03:04:23;;;;;;;14.40;12.93;;;;;;;8.55;100.00;100275.59;5054599;28;20218;-80
2022/12/21 03:07:17;;;;;;;15.00;13.23;;;;;;;8.54;100.00;100272.09;5055980;28;20245;-81
2022/12/21 03:09:54;;;;;;;14.73;13.20;;;;;;;8.56;100.00;100264.88;5047297;28;20221;-80
2022/12/21 03:12:30;;;;;;;15.87;13.67;;;;;;;8.56;100.00;100272.84;5044488;28;20225;-80
2022/12/21 03:15:09;;;;;;;14.90;13.37;;;;;;;8.57;100.00;100271.03;5051973;28;20679;-80
2022/12/21 03:17:42;;;;;;;15.43;13.53;;;;;;;8.58;100.00;100270.09;5057925;28;20224;-80
2022/12/21 03:20:19;;;;;;;16.97;13.80;;;;;;;8.58;100.00;100272.75;5054125;28;20205;-80
2022/12/21 03:22:52;;;;;;;16.37;14.17;;;;;;;8.56;100.00;100278.16;5053404;28;20755;-80
2022/12/21 03:25:23;;;;;;;15.97;14.17;;;;;;;8.56;100.00;100280.81;5051821;28;20205;-80
2022/12/21 03:27:54;;;;;;;19.33;14.90;;;;;;;8.56;100.00;100277.28;5055542;28;20240;-80
2022/12/21 03:30:22;;;;;;;17.73;14.60;;;;;;;8.56;100.00;100274.66;5050737;28;20206;-80
2022/12/21 03:32:52;;;;;;;19.53;14.27;;;;;;;8.56;100.00;100283.47;5058580;28;20845;-80
2022/12/21 03:35:26;;;;;;;16.27;14.37;;;;;;;8.56;100.00;100275.50;5050048;28;20209;-80
2022/12/21 03:37:55;;;;;;;17.53;14.60;;;;;;;8.58;100.00;100270.09;5051781;28;20975;-80
2022/12/21 03:40:25;;;;;;;15.93;14.23;;;;;;;8.55;100.00;100265.81;5052754;28;20664;-80
2022/12/21 03:42:58;;;;;;;19.37;15.50;;;;;;;8.53;100.00;100262.41;5051037;28;20254;-79
2022/12/21 03:45:30;;;;;;;18.23;14.13;;;;;;;8.52;100.00;100271.31;5055277;28;20206;-80
2022/12/21 03:48:03;;;;;;;16.03;14.33;;;;;;;8.51;100.00;100271.41;5052442;28;20236;-80
2022/12/21 03:50:34;;;;;;;18.40;14.73;;;;;;;8.52;100.00;100273.13;5050332;28;20601;-79
2022/12/21 03:53:10;;;;;;;16.73;14.97;;;;;;;8.51;100.00;100272.25;5046647;28;20700;-80
2022/12/21 03:55:39;;;;;;;15.67;13.97;;;;;;;8.51;100.00;100263.44;5048394;28;20198;-80
2022/12/21 03:58:07;;;;;;;18.37;15.27;;;;;;;8.50;100.00;100267.91;5050841;28;20211;-79
2022/12/21 04:00:42;;;;;;;16.50;14.23;;;;;;;8.50;100.00;100259.09;5054312;28;20204;-80
2022/12/21 04:03:15;;;;;;;16.00;14.13;;;;;;;8.50;100.00;100256.44;5043575;28;20240;-79
2022/12/21 04:05:50;;;;;;;16.57;14.73;;;;;;;8.49;100.00;100258.22;5046085;28;20209;-79
2022/12/21 04:08:16;;;;;;;16.10;14.20;;;;;;;8.49;100.00;100252.06;5046336;28;20211;-79
2022/12/21 04:10:43;;;;;;;17.07;15.20;;;;;;;8.50;100.00;100256.44;5047070;28;20270;-80
2022/12/21 04:13:08;;;;;;;17.77;14.73;;;;;;;8.49;100.00;100249.41;5053925;28;20228;-80
2022/12/21 04:19:57;;;;;;;17.87;14.27;;;;;;;8.49;100.00;100252.06;5047096;28;20209;-80
2022/12/21 04:21:03;;;;;;;16.97;15.17;;;;;;;8.48;100.00;100258.31;5055852;28;20275;-80
2022/12/21 04:28:59;;;;;;;16.60;14.60;;;;;;;8.46;100.00;100255.75;5043776;28;20212;-79
2022/12/21 04:31:25;;;;;;;17.00;14.17;;;;;;;8.45;100.00;100262.00;5044397;28;20212;-80
2022/12/21 04:33:52;;;;;;;16.97;14.63;;;;;;;8.46;100.00;100268.16;5047557;28;20206;-79
2022/12/21 04:39:04;;;;;;;18.57;14.23;;;;;;;8.45;100.00;100259.34;5051736;28;20273;-80
2022/12/21 04:41:30;;;;;;;17.03;14.93;;;;;;;8.46;100.00;100262.84;5050992;28;20224;-81
2022/12/21 04:43:57;;;;;;;16.33;14.67;;;;;;;8.44;100.00;100265.59;5042707;28;20297;-80
2022/12/21 04:46:23;;;;;;;16.40;14.67;;;;;;;8.45;100.00;100261.16;5057672;28;20381;-81
2022/12/21 04:48:50;;;;;;;18.40;15.27;;;;;;;8.44;100.00;100262.94;5042988;28;20867;-81
2022/12/21 04:51:19;;;;;;;17.60;15.23;;;;;;;8.45;100.00;100269.13;5052035;28;20212;-81
2022/12/21 04:53:47;;;;;;;17.57;15.53;;;;;;;8.44;100.00;100270.91;5050875;28;20212;-80
2022/12/21 04:56:14;;;;;;;16.83;14.90;;;;;;;8.44;100.00;100268.25;5045150;28;20206;-80
2022/12/21 04:58:41;;;;;;;18.77;15.37;;;;;;;8.44;100.00;100273.56;5052579;28;20839;-81
2022/12/21 05:01:09;;;;;;;19.10;15.87;;;;;;;8.45;100.00;100271.75;5046163;28;20241;-80
2022/12/21 05:03:36;;;;;;;19.73;15.70;;;;;;;8.45;100.00;100262.00;5054376;28;20197;-80
2022/12/21 05:06:02;;;;;;;18.23;15.13;;;;;;;8.46;100.00;100249.59;5051291;28;20746;-80
2022/12/21 05:08:29;;;;;;;19.80;15.93;;;;;;;8.45;100.00;100248.75;5047929;28;20210;-81
2022/12/21 05:11:07;;;;;;;15.90;14.10;;;;;;;8.45;100.00;100243.44;5054079;28;20206;-80
2022/12/21 05:13:34;;;;;;;20.23;16.20;;;;;;;8.45;100.00;100245.22;5055163;28;20243;-80
2022/12/21 05:16:02;;;;;;;17.23;15.43;;;;;;;8.43;100.00;100255.94;5049875;28;20219;-81
2022/12/21 05:18:29;;;;;;;17.13;15.33;;;;;;;8.44;100.00;100251.47;5048793;28;20214;-82
2022/12/21 05:20:55;;;;;;;19.00;15.70;;;;;;;8.42;100.00;100256.06;5053047;28;20212;-81
2022/12/21 05:23:22;;;;;;;20.67;16.27;;;;;;;8.42;100.00;100259.53;5049144;28;20230;-82
2022/12/21 05:25:48;;;;;;;20.87;16.57;;;;;;;8.42;100.00;100253.41;5049480;28;20301;-83
2022/12/21 05:28:16;;;;;;;16.40;14.70;;;;;;;8.43;100.00;100249.78;5046450;28;20198;-81
2022/12/21 05:30:42;;;;;;;20.30;16.50;;;;;;;8.43;100.00;100249.78;5040720;28;20266;-82
2022/12/21 05:33:09;;;;;;;16.83;15.03;;;;;;;8.43;100.00;100242.66;5048677;28;20228;-82
2022/12/21 05:35:39;;;;;;;20.93;16.63;;;;;;;8.42;100.00;100237.47;5049245;28;20197;-82
2022/12/21 05:38:06;;;;;;;18.80;16.67;;;;;;;8.42;100.00;100235.66;5053104;28;20696;-82
2022/12/21 05:40:33;;;;;;;18.40;15.33;;;;;;;8.41;100.00;100236.63;5047532;28;20210;-82
2022/12/21 05:42:59;;;;;;;20.77;16.27;;;;;;;8.42;100.00;100237.47;5047140;28;20225;-81
2022/12/21 05:45:27;;;;;;;20.43;16.50;;;;;;;8.39;100.00;100238.53;5039659;28;20236;-82
2022/12/21 05:47:54;;;;;;;18.20;16.07;;;;;;;8.39;100.00;100250.94;5050481;28;20268;-82
2022/12/21 05:50:21;;;;;;;20.37;17.10;;;;;;;8.39;100.00;100233.22;5051877;28;20209;-82
2022/12/21 05:52:47;;;;;;;22.57;18.57;;;;;;;8.40;100.00;100239.38;5053167;28;20229;-82
2022/12/21 05:55:15;;;;;;;24.47;20.03;;;;;;;8.40;100.00;100231.41;5048880;28;20210;-80
2022/12/21 05:57:42;;;;;;;23.80;19.07;;;;;;;8.39;100.00;100237.66;5048858;28;20598;-81
2022/12/21 06:00:09;;;;;;;24.67;17.93;;;;;;;8.38;100.00;100239.47;5059072;28;20204;-81
2022/12/21 06:02:37;;;;;;;22.63;17.90;;;;;;;8.37;100.00;100237.75;5052128;28;20228;-81
2022/12/21 06:05:04;;;;;;;25.00;18.27;;;;;;;8.38;100.00;100236.81;5048545;28;20256;-81
2022/12/21 06:07:31;;;;;;;25.13;18.90;;;;;;;8.38;100.00;100238.59;5057379;28;20260;-83
2022/12/21 06:09:57;;;;;;;23.17;17.20;;;;;;;8.37;100.00;100250.16;5052147;28;20549;-81
2022/12/21 06:12:24;;;;;;;24.87;18.40;;;;;;;8.37;100.00;100242.22;5050107;28;20229;-82
2022/12/21 06:14:51;;;;;;;24.03;18.83;;;;;;;8.37;100.00;100250.16;5053826;28;20205;-82
2022/12/21 06:17:17;;;;;;;21.77;17.17;;;;;;;8.38;100.00;100242.13;5051731;28;20208;-82
2022/12/21 06:19:45;;;;;;;20.93;17.13;;;;;;;8.38;100.00;100251.88;5055182;28;20206;-81
2022/12/21 06:22:12;;;;;;;21.90;17.20;;;;;;;8.38;100.00;100247.41;5056323;28;20222;-82
2022/12/21 06:24:38;;;;;;;22.53;16.67;;;;;;;8.38;100.00;100252.72;5043533;28;20297;-80
2022/12/21 06:27:05;;;;;;;20.50;16.83;;;;;;;8.39;100.00;100248.28;5045631;28;20216;-82
2022/12/21 06:29:31;;;;;;;21.47;17.43;;;;;;;8.39;100.00;100251.78;5049938;28;20667;-82
2022/12/21 06:31:59;;;;;;;22.67;17.77;;;;;;;8.39;100.00;100256.25;5052174;28;20237;-82
2022/12/21 06:34:25;;;;;;;21.07;17.10;;;;;;;8.41;100.00;100259.66;5048146;28;20260;-82
2022/12/21 06:36:54;;;;;;;24.13;17.80;;;;;;;8.39;100.00;100258.88;5043828;28;20225;-81
2022/12/21 06:39:21;;;;;;;23.93;17.83;;;;;;;8.42;100.00;100256.88;5053592;28;20259;-82
2022/12/21 06:41:47;;;;;;;21.20;16.70;;;;;;;8.41;100.00;100249.91;5064543;28;20235;-81
2022/12/21 06:44:14;;;;;;;22.57;17.30;;;;;;;8.41;100.00;100255.19;5065144;28;20301;-81
2022/12/21 06:46:40;;;;;;;20.53;17.00;;;;;;;8.41;100.00;100257.00;5061782;28;20210;-81
2022/12/21 06:49:07;;;;;;;24.80;17.47;;;;;;;8.40;100.00;100265.91;5056200;28;20209;-81
2022/12/21 06:51:33;;;;;;;19.17;15.80;;;;;;;8.42;100.00;100269.31;5057382;28;20228;-81
2022/12/21 06:54:01;;;;;;;24.33;17.63;;;;;;;8.41;100.00;100278.22;5052339;28;20214;-81
2022/12/21 06:56:31;;;;;;;21.77;16.37;;;;;;;8.40;100.00;100279.19;5050238;28;20233;-80
2022/12/21 06:58:58;;;;;;;24.13;17.23;;;;;;;8.40;100.00;100281.81;5056193;28;20225;-80
2022/12/21 07:01:26;;;;;;;25.40;17.90;;;;;;;8.38;100.00;100284.56;5055420;28;20198;-80
2022/12/21 07:03:53;;;;;;;23.37;17.40;;;;;;;8.38;100.00;100294.34;5054806;28;20216;-80
2022/12/21 07:06:22;;;;;;;24.10;16.03;;;;;;;8.38;100.00;100283.72;5056662;28;20230;-80
2022/12/21 07:08:49;;;;;;;21.90;17.10;;;;;;;8.39;100.00;100288.06;5052766;28;20217;-80
2022/12/21 07:11:19;;;;;;;26.90;16.90;;;;;;;8.38;100.00;100281.91;5056862;28;20207;-80
2022/12/21 07:13:47;;;;;;;22.40;16.60;;;;;;;8.38;100.00;100289.88;5056705;28;20205;-80
2022/12/21 07:16:15;;;;;;;24.70;17.20;;;;;;;8.37;100.00;100282.84;5053017;28;20304;-80
2022/12/21 07:18:42;;;;;;;24.37;17.80;;;;;;;8.35;100.00;100290.91;5056501;28;20282;-82
2022/12/21 07:21:11;;;;;;;27.00;18.27;;;;;;;8.35;100.00;100284.75;5054685;28;20205;-81
2022/12/21 07:23:39;;;;;;;22.83;16.60;;;;;;;8.37;100.00;100288.16;5053049;28;20205;-81
2022/12/21 07:26:07;;;;;;;18.53;15.00;;;;;;;8.39;100.00;100282.78;5051051;28;20222;-79
2022/12/21 07:28:35;;;;;;;23.13;16.77;;;;;;;8.38;100.00;100279.25;5061095;28;20676;-80
2022/12/21 07:31:03;;;;;;;24.97;17.07;;;;;;;8.36;100.00;100289.13;5054765;28;20210;-82
2022/12/21 07:33:30;;;;;;;23.73;16.60;;;;;;;8.35;100.00;100288.25;5060563;28;20224;-82
2022/12/21 07:35:58;;;;;;;25.00;17.33;;;;;;;8.32;100.00;100285.78;5060497;28;20289;-81
2022/12/21 07:38:25;;;;;;;24.33;16.63;;;;;;;8.32;100.00;100285.78;5060996;28;20213;-80
2022/12/21 07:40:51;;;;;;;24.07;17.77;;;;;;;8.30;100.00;100282.31;5060059;28;20264;-81
2022/12/21 07:43:18;;;;;;;20.60;16.73;;;;;;;8.31;100.00;100289.34;5057857;28;20221;-81
2022/12/21 07:45:46;;;;;;;21.40;15.97;;;;;;;8.28;100.00;100294.84;5051541;28;20240;-80
2022/12/21 07:48:13;;;;;;;21.27;16.50;;;;;;;8.29;100.00;100285.94;5051550;28;20285;-81
2022/12/21 07:50:39;;;;;;;22.57;15.47;;;;;;;8.29;100.00;100277.97;5055004;28;20222;-82
2022/12/21 07:53:05;;;;;;;22.10;15.77;;;;;;;8.28;100.00;100273.59;5055442;28;20233;-81
2022/12/21 07:55:32;;;;;;;19.30;14.50;;;;;;;8.28;100.00;100278.06;5051288;28;20213;-82
2022/12/21 07:57:58;;;;;;;17.97;14.20;;;;;;;8.28;100.00;100284.22;5056651;28;20216;-82
2022/12/21 08:00:25;;;;;;;18.73;14.60;;;;;;;8.29;100.00;100274.47;5058912;28;20201;-80
2022/12/21 08:02:53;;;;;;;20.43;14.83;;;;;;;8.29;100.00;100280.63;5052072;28;20236;-82
2022/12/21 08:05:20;;;;;;;21.33;15.63;;;;;;;8.28;100.00;100284.22;5057596;28;20228;-81
2022/12/21 08:07:47;;;;;;;22.10;15.67;;;;;;;8.29;100.00;100275.31;5054475;28;20309;-81
2022/12/21 08:10:14;;;;;;;19.03;14.27;;;;;;;8.30;100.00;100286.78;5059917;28;20198;-81
2022/12/21 08:12:40;;;;;;;21.47;16.03;;;;;;;8.29;100.00;100279.75;5052271;28;20637;-81
2022/12/21 08:15:08;;;;;;;20.90;16.97;;;;;;;8.28;100.00;100281.56;5049205;28;20230;-83
2022/12/21 08:17:34;;;;;;;19.67;14.77;;;;;;;8.29;100.00;100277.97;5051591;28;20202;-81
2022/12/21 08:20:03;;;;;;;22.10;15.47;;;;;;;8.30;100.00;100263.75;5047018;28;20209;-80
2022/12/21 08:22:30;;;;;;;19.73;15.50;;;;;;;8.31;100.00;100273.44;5045373;28;20222;-81
2022/12/21 08:24:56;;;;;;;19.13;14.17;;;;;;;8.34;100.00;100270.63;5048900;28;20217;-80
2022/12/21 08:27:23;;;;;;;16.87;13.30;;;;;;;8.33;100.00;100263.59;5053306;28;20572;-81
2022/12/21 08:29:49;;;;;;;17.20;13.33;;;;;;;8.34;100.00;100267.97;5053107;28;20233;-80
2022/12/21 08:32:16;;;;;;;19.07;13.37;;;;;;;8.33;100.00;100258.31;5055583;28;20226;-80
2022/12/21 08:34:42;;;;;;;19.70;14.23;;;;;;;8.37;100.00;100266.09;5052939;28;20217;-81
2022/12/21 08:37:10;;;;;;;18.43;14.20;;;;;;;8.38;100.00;100259.84;5055150;28;20277;-81
2022/12/21 08:39:36;;;;;;;17.53;14.00;;;;;;;8.39;100.00;100265.06;5051996;28;20198;-80
2022/12/21 08:42:03;;;;;;;17.43;13.20;;;;;;;8.41;100.00;100268.47;5045473;28;20879;-82
2022/12/21 08:44:30;;;;;;;17.30;13.00;;;;;;;8.43;100.00;100273.66;5056807;28;20203;-80
2022/12/21 08:46:56;;;;;;;18.47;13.27;;;;;;;8.45;100.00;100271.75;5043077;28;20230;-81
2022/12/21 08:49:23;;;;;;;17.80;13.70;;;;;;;8.45;100.00;100258.50;5045838;28;20202;-81
2022/12/21 08:51:49;;;;;;;17.30;13.23;;;;;;;8.49;100.00;100260.03;5052134;28;20717;-82
2022/12/21 08:54:17;;;;;;;17.10;12.33;;;;;;;8.50;100.00;100267.03;5052507;28;20256;-82
2022/12/21 08:56:43;;;;;;;17.20;13.37;;;;;;;8.50;100.00;100273.22;5057783;28;20228;-81
2022/12/21 08:59:10;;;;;;;16.10;12.80;;;;;;;8.51;100.00;100269.59;5055126;28;20293;-81
2022/12/21 09:01:37;;;;;;;17.10;13.03;;;;;;;8.53;100.00;100266.88;5043639;28;20639;-80
2022/12/21 09:04:04;;;;;;;14.90;12.43;;;;;;;8.53;100.00;100272.16;5049460;28;20232;-82
2022/12/21 09:06:30;;;;;;;16.47;12.50;;;;;;;8.51;100.00;100266.94;5060571;28;20232;-79
2022/12/21 09:08:57;;;;;;;16.20;13.20;;;;;;;8.52;100.00;100263.34;5053765;28;20293;-79
2022/12/21 09:11:27;;;;;;;19.17;13.10;;;;;;;8.51;100.00;100260.78;5058081;28;20209;-78
2022/12/21 09:13:53;;;;;;;18.60;13.90;;;;;;;8.49;100.00;100263.53;5058009;28;20210;-79
2022/12/21 09:16:22;;;;;;;16.37;13.00;;;;;;;8.50;100.00;100261.72;5056197;28;20293;-79
2022/12/21 09:18:50;;;;;;;18.27;13.60;;;;;;;8.50;100.00;100282.97;5053996;28;20225;-79
2022/12/21 09:21:19;;;;;;;19.47;15.17;;;;;;;8.47;100.00;100283.16;5054587;28;20206;-79
2022/12/21 09:23:45;;;;;;;16.53;13.77;;;;;;;8.47;100.00;100277.84;5059245;28;20209;-79
2022/12/21 09:26:14;;;;;;;18.73;14.03;;;;;;;8.46;100.00;100286.75;5054132;28;20222;-80
2022/12/21 09:28:41;;;;;;;15.63;12.17;;;;;;;8.45;100.00;100279.72;5056618;28;20201;-80
2022/12/21 09:31:10;;;;;;;16.37;13.07;;;;;;;8.44;100.00;100268.25;5054612;28;20202;-80
2022/12/21 09:33:37;;;;;;;17.80;13.40;;;;;;;8.45;100.00;100269.13;5058400;28;20206;-82
2022/12/21 09:36:04;;;;;;;16.67;12.77;;;;;;;8.45;100.00;100271.75;5058952;28;20212;-81
2022/12/21 09:38:31;;;;;;;17.67;13.13;;;;;;;8.46;100.00;100268.16;5055762;28;20208;-81
2022/12/21 09:41:01;;;;;;;17.37;13.00;;;;;;;8.47;100.00;100267.22;5057650;28;20206;-80
2022/12/21 09:43:40;;;;;;;16.07;12.30;;;;;;;8.48;100.00;100264.47;5065106;28;20221;-81
2022/12/21 09:46:11;;;;;;;16.03;12.30;;;;;;;8.50;100.00;100261.72;5061190;28;20214;-80
2022/12/21 09:48:41;;;;;;;16.57;12.00;;;;;;;8.51;100.00;100264.31;5058094;28;20198;-81
2022/12/21 09:51:14;;;;;;;17.83;13.23;;;;;;;8.51;100.00;100266.09;5064177;28;20226;-81
2022/12/21 09:53:46;;;;;;;15.90;12.37;;;;;;;8.52;100.00;100265.16;5065931;28;20218;-81
2022/12/21 09:56:17;;;;;;;14.53;11.70;;;;;;;8.54;100.00;100271.22;5062446;28;20217;-81
2022/12/21 09:58:46;;;;;;;15.27;12.33;;;;;;;8.54;100.00;100272.09;5067321;28;20216;-79
2022/12/21 10:01:21;;;;;;;16.97;13.37;;;;;;;8.55;100.00;100278.25;5062006;28;20205;-81
2022/12/21 10:04:07;;;;;;;15.57;12.27;;;;;;;8.54;100.00;100272.09;5064926;28;20201;-82
2022/12/21 10:06:52;;;;;;;22.20;13.57;;;;;;;8.55;100.00;100270.28;5060714;28;20249;-81
2022/12/21 10:09:42;;;;;;;17.33;13.57;;;;;;;8.53;100.00;100261.56;5053361;28;20206;-79
2022/12/21 10:12:22;;;;;;;17.70;13.20;;;;;;;8.51;100.00;100263.44;5054033;28;20232;-83
2022/12/21 10:15:01;;;;;;;18.87;13.17;;;;;;;8.50;100.00;100256.44;5062383;28;20197;-81
2022/12/21 10:17:43;;;;;;;21.43;15.47;;;;;;;8.50;100.00;100261.72;5059944;28;20213;-80
2022/12/21 10:20:23;;;;;;;18.03;14.43;;;;;;;8.50;100.00;100259.09;5062897;28;20228;-81
2022/12/21 10:22:55;;;;;;;20.33;14.87;;;;;;;8.49;100.00;100255.56;5056000;28;20226;-79
2022/12/21 10:25:23;;;;;;;21.33;14.73;;;;;;;8.50;100.00;100259.09;5053266;28;20225;-81
2022/12/21 10:27:54;;;;;;;24.50;15.43;;;;;;;8.49;100.00;100254.72;5057491;28;20205;-81
2022/12/21 10:30:20;;;;;;;22.80;15.20;;;;;;;8.49;100.00;100260.03;5059506;28;20204;-81
2022/12/21 10:32:50;;;;;;;22.57;16.37;;;;;;;8.49;100.00;100252.91;5065601;28;20236;-79
2022/12/21 10:35:20;;;;;;;25.73;17.50;;;;;;;8.50;100.00;100254.63;5074570;28;20265;-79
2022/12/21 10:37:50;;;;;;;21.83;15.80;;;;;;;8.52;100.00;100249.22;5053582;28;20210;-81
2022/12/21 10:40:17;;;;;;;23.40;16.00;;;;;;;8.52;100.00;100250.09;5047432;28;20580;-81
2022/12/21 10:42:49;;;;;;;20.17;14.80;;;;;;;8.53;100.00;100245.63;5051977;28;20240;-80
2022/12/21 10:45:17;;;;;;;22.70;15.93;;;;;;;8.54;100.00;100257.94;5053129;28;20202;-79
2022/12/21 10:47:44;;;;;;;24.00;16.17;;;;;;;8.56;100.00;100256.06;5055823;28;20636;-81
2022/12/21 10:50:17;;;;;;;20.73;15.63;;;;;;;8.56;100.00;100251.59;5042346;28;20213;-80
2022/12/21 10:52:45;;;;;;;20.90;15.40;;;;;;;8.58;100.00;100243.56;5043239;28;20296;-80
2022/12/21 10:55:32;;;;;;;22.17;15.63;;;;;;;8.61;100.00;100241.53;5050279;28;20213;-79
2022/12/21 10:58:12;;;;;;;18.00;14.83;;;;;;;8.63;100.00;100231.69;5041427;28;20275;-81
2022/12/21 11:00:48;;;;;;;17.13;12.97;;;;;;;8.65;100.00;100228.94;5048622;28;20202;-80
2022/12/21 11:03:24;;;;;;;17.30;13.43;;;;;;;8.65;100.00;100223.63;5050565;28;20229;-78
2022/12/21 11:05:52;;;;;;;17.03;13.50;;;;;;;8.63;100.00;100213.09;5049354;28;20235;-81
2022/12/21 11:08:24;;;;;;;17.40;13.73;;;;;;;8.60;100.00;100201.81;5060443;28;20202;-79
2022/12/21 11:10:53;;;;;;;20.80;14.10;;;;;;;8.61;100.00;100214.13;5040344;28;20281;-80
2022/12/21 11:13:22;;;;;;;18.63;13.23;;;;;;;8.59;100.00;100203.66;5051172;28;20240;-80
2022/12/21 11:15:54;;;;;;;20.10;14.17;;;;;;;8.60;100.00;100194.69;5049768;28;20574;-79
2022/12/21 11:18:34;;;;;;;20.03;14.77;;;;;;;8.61;100.00;100203.53;5039367;28;20210;-79
2022/12/21 11:21:03;;;;;;;19.77;14.17;;;;;;;8.62;100.00;100215.84;5049032;28;20270;-81
2022/12/21 11:23:30;;;;;;;19.47;14.10;;;;;;;8.64;100.00;100216.59;5056353;28;20711;-80
2022/12/21 11:25:58;;;;;;;18.63;13.27;;;;;;;8.65;100.00;100221.81;5049919;28;20249;-79
2022/12/21 11:28:25;;;;;;;15.63;11.70;;;;;;;8.68;100.00;100203.06;5042286;28;20205;-81
2022/12/21 11:30:54;;;;;;;14.70;12.03;;;;;;;8.73;100.00;100210.75;5050671;28;20214;-81
2022/12/21 11:33:22;;;;;;;10.60;9.50;;;;;;;8.80;100.00;100204.06;5058076;28;20237;-81
2022/12/21 11:36:13;;;;;;;11.20;9.27;;;;;;;8.86;100.00;100198.38;5042869;28;20909;-80
2022/12/21 11:38:40;;;;;;;11.67;9.73;;;;;;;8.86;100.00;100190.44;5055068;28;20205;-81